Time;durP1;ratioP1;P1;durP2;ratioP2;P2;SDS_P1;SDS_P2;PMS_P1;PMS_P2;Temp;Humidity;BMP_temperature;BMP_pressure;BME280_temperature;BME280_humidity;BME280_pressure;Samples;Min_cycle;Max_cycle;Signal;HPM_P1;HPM_P2
2022/09/26 00:01:58;;;;;;;10.27;6.20;;;12.60;99.90;;;;;;4972564;28;20540;-72
2022/09/26 00:04:27;;;;;;;7.47;5.70;;;12.50;99.90;;;;;;4972432;28;20259;-72
2022/09/26 00:06:54;;;;;;;6.53;5.80;;;12.50;99.90;;;;;;4972561;28;20255;-72
2022/09/26 00:09:21;;;;;;;7.40;5.83;;;12.40;99.90;;;;;;4971172;28;20321;-72
2022/09/26 00:11:48;;;;;;;7.33;5.30;;;12.30;99.90;;;;;;4972314;28;20166;-72
2022/09/26 00:14:18;;;;;;;5.67;5.10;;;12.30;99.90;;;;;;4972107;28;20164;-72
2022/09/26 00:16:44;;;;;;;9.30;5.63;;;12.20;99.90;;;;;;4972318;28;20261;-72
2022/09/26 00:19:10;;;;;;;6.23;5.43;;;12.30;99.90;;;;;;4971887;28;20699;-73
2022/09/26 00:21:36;;;;;;;6.27;5.50;;;12.40;99.90;;;;;;4972419;28;20207;-73
2022/09/26 00:24:03;;;;;;;10.40;5.67;;;12.30;99.90;;;;;;4971812;28;20190;-72
2022/09/26 00:26:32;;;;;;;6.33;5.73;;;12.30;99.90;;;;;;4972205;28;20246;-72
2022/09/26 00:29:00;;;;;;;8.10;5.77;;;12.20;99.90;;;;;;4971772;28;20259;-72
2022/09/26 00:31:29;;;;;;;9.50;5.70;;;12.20;99.90;;;;;;4972237;28;20172;-73
2022/09/26 00:33:55;;;;;;;9.20;5.83;;;12.30;99.90;;;;;;4971906;28;20176;-73
2022/09/26 00:36:21;;;;;;;10.07;5.60;;;12.30;99.90;;;;;;4972073;28;20168;-73
2022/09/26 00:38:47;;;;;;;7.83;5.97;;;12.20;99.90;;;;;;4972027;28;20168;-73
2022/09/26 00:41:13;;;;;;;6.73;6.03;;;12.30;99.90;;;;;;4971733;28;20547;-73
2022/09/26 00:43:52;;;;;;;8.97;5.73;;;12.30;99.90;;;;;;4972043;28;20172;-73
2022/09/26 00:46:45;;;;;;;13.20;5.73;;;12.30;99.90;;;;;;4972156;28;20271;-72
2022/09/26 00:49:25;;;;;;;7.17;5.53;;;12.30;99.90;;;;;;4971995;28;20639;-72
2022/09/26 00:51:56;;;;;;;6.90;5.60;;;12.20;99.90;;;;;;4971912;28;20187;-71
2022/09/26 00:54:24;;;;;;;8.90;5.73;;;12.20;99.90;;;;;;4971663;28;20176;-72
2022/09/26 00:56:52;;;;;;;9.23;6.27;;;12.20;99.90;;;;;;4971412;28;20172;-73
2022/09/26 00:59:23;;;;;;;7.23;5.47;;;12.20;99.90;;;;;;4971731;28;20176;-72
2022/09/26 01:01:52;;;;;;;7.53;6.17;;;12.10;99.90;;;;;;4970475;28;20184;-73
2022/09/26 01:04:18;;;;;;;9.20;5.80;;;12.10;99.90;;;;;;4971866;28;20199;-73
2022/09/26 01:06:45;;;;;;;11.00;5.80;;;12.10;99.90;;;;;;4971726;28;20225;-72
2022/09/26 01:09:13;;;;;;;10.80;5.60;;;12.10;99.90;;;;;;4971760;28;20173;-72
2022/09/26 01:11:41;;;;;;;8.97;5.67;;;12.10;99.90;;;;;;4971326;28;20179;-72
2022/09/26 01:14:09;;;;;;;7.83;5.83;;;12.10;99.90;;;;;;4971541;28;20188;-72
2022/09/26 01:16:37;;;;;;;8.67;5.40;;;12.00;99.90;;;;;;4971441;28;20184;-72
2022/09/26 01:19:15;;;;;;;8.90;5.83;;;11.90;99.90;;;;;;4971223;28;20265;-72
2022/09/26 01:22:05;;;;;;;9.87;5.53;;;11.90;99.90;;;;;;4971524;28;20183;-73
2022/09/26 01:24:52;;;;;;;8.33;5.50;;;11.90;99.90;;;;;;4954258;28;20184;-71
2022/09/26 01:27:28;;;;;;;9.40;5.13;;;11.90;99.90;;;;;;4970186;28;20218;-72
2022/09/26 01:30:08;;;;;;;6.27;5.10;;;11.90;99.90;;;;;;4971398;28;20187;-72
2022/09/26 01:32:49;;;;;;;8.70;4.37;;;11.90;99.90;;;;;;4971347;28;20696;-72
2022/09/26 01:35:58;;;;;;;8.27;5.17;;;11.90;99.90;;;;;;4971199;28;20164;-72
2022/09/26 01:38:36;;;;;;;7.83;4.60;;;11.90;99.90;;;;;;4974851;28;20176;-72
2022/09/26 01:41:16;;;;;;;9.07;4.57;;;11.90;99.90;;;;;;4974274;28;20210;-72
2022/09/26 01:44:07;;;;;;;8.77;4.50;;;11.90;99.90;;;;;;4974538;28;20179;-72
2022/09/26 01:46:52;;;;;;;5.83;4.47;;;11.90;99.90;;;;;;4974778;28;20172;-73
2022/09/26 01:49:35;;;;;;;7.80;4.27;;;12.00;99.90;;;;;;4973228;28;20184;-73
2022/09/26 01:52:04;;;;;;;8.27;4.10;;;12.10;99.90;;;;;;4974451;28;20558;-72
2022/09/26 01:54:38;;;;;;;7.93;4.20;;;12.10;96.40;;;;;;4974100;28;20176;-72
2022/09/26 01:57:08;;;;;;;8.33;4.50;;;12.10;95.00;;;;;;4974576;28;20222;-72
2022/09/26 01:59:44;;;;;;;8.53;4.50;;;12.10;94.50;;;;;;4973036;28;20208;-72
2022/09/26 02:02:22;;;;;;;8.73;4.17;;;12.10;94.60;;;;;;4974432;28;20174;-72
2022/09/26 02:04:58;;;;;;;5.37;4.03;;;12.00;93.90;;;;;;4973050;28;20639;-73
2022/09/26 02:07:32;;;;;;;7.87;4.03;;;12.00;91.80;;;;;;4972390;28;20279;-73
2022/09/26 02:10:23;;;;;;;5.63;4.37;;;12.10;91.30;;;;;;4974001;28;20202;-73
2022/09/26 02:12:53;;;;;;;4.90;4.03;;;12.10;89.10;;;;;;4974104;28;20188;-73
2022/09/26 02:15:24;;;;;;;7.83;4.30;;;12.20;81.90;;;;;;4974164;28;20290;-72
2022/09/26 02:18:00;;;;;;;4.27;3.60;;;12.10;81.00;;;;;;4973819;28;20227;-72
2022/09/26 02:20:30;;;;;;;7.50;4.03;;;12.10;79.80;;;;;;4974044;28;20230;-72
2022/09/26 02:22:58;;;;;;;9.10;4.70;;;12.20;78.00;;;;;;4973614;28;20172;-72
2022/09/26 02:25:24;;;;;;;7.10;4.13;;;12.30;75.90;;;;;;4973912;28;20180;-73
2022/09/26 02:27:49;;;;;;;9.30;4.50;;;12.30;71.70;;;;;;4972448;28;20194;-72
2022/09/26 02:30:15;;;;;;;8.27;4.10;;;12.40;67.40;;;;;;4972622;28;20639;-72
2022/09/26 02:32:41;;;;;;;6.87;4.10;;;12.40;65.70;;;;;;4974085;28;20170;-73
2022/09/26 02:35:53;;;;;;;5.43;4.10;;;12.40;70.40;;;;;;4973802;28;20183;-72
2022/09/26 02:38:00;;;;;;;11.50;4.27;;;12.40;73.60;;;;;;4973350;28;20640;-73
2022/09/26 02:40:50;;;;;;;4.73;3.90;;;12.40;75.10;;;;;;4973473;28;20203;-72
2022/09/26 02:43:31;;;;;;;7.07;4.40;;;12.40;78.90;;;;;;4973815;28;20255;-72
2022/09/26 02:46:16;;;;;;;6.47;3.80;;;12.50;74.60;;;;;;4973459;28;20250;-73
2022/09/26 02:48:57;;;;;;;5.33;3.83;;;12.50;72.10;;;;;;4973363;28;20183;-72
2022/09/26 02:51:35;;;;;;;4.40;3.47;;;12.50;73.30;;;;;;4972299;28;20192;-73
2022/09/26 02:54:27;;;;;;;9.17;3.70;;;12.40;74.30;;;;;;4971895;28;20266;-73
2022/09/26 02:56:58;;;;;;;6.83;3.40;;;12.40;84.20;;;;;;4973611;28;20164;-73
2022/09/26 02:59:49;;;;;;;9.13;3.30;;;12.40;80.70;;;;;;4973447;28;20191;-72
2022/09/26 03:02:26;;;;;;;5.27;2.83;;;12.40;80.70;;;;;;4972167;28;20223;-72
2022/09/26 03:05:09;;;;;;;3.70;2.90;;;12.30;84.20;;;;;;4973277;28;20198;-72
2022/09/26 03:07:45;;;;;;;5.93;3.00;;;12.30;83.90;;;;;;4973171;28;20168;-72
2022/09/26 03:10:12;;;;;;;6.77;3.00;;;12.40;81.30;;;;;;4972149;28;20653;-72
2022/09/26 03:12:39;;;;;;;8.97;3.70;;;12.40;75.40;;;;;;4973100;28;20176;-72
2022/09/26 03:15:07;;;;;;;6.70;2.90;;;12.40;74.70;;;;;;4972796;28;20177;-72
2022/09/26 03:17:36;;;;;;;7.07;2.67;;;12.40;71.50;;;;;;4973053;28;20220;-72
2022/09/26 03:20:15;;;;;;;4.27;3.07;;;12.40;76.10;;;;;;4973095;28;20372;-73
2022/09/26 03:22:42;;;;;;;4.43;2.50;;;12.40;72.90;;;;;;4971356;28;20250;-72
2022/09/26 03:25:15;;;;;;;4.17;3.03;;;12.40;72.50;;;;;;4972923;28;20313;-72
2022/09/26 03:27:44;;;;;;;8.93;3.00;;;12.40;74.50;;;;;;4972885;28;20639;-72
2022/09/26 03:30:11;;;;;;;6.00;2.67;;;12.30;67.80;;;;;;4972800;28;20180;-72
2022/09/26 03:32:37;;;;;;;4.50;2.73;;;12.30;66.80;;;;;;4971847;28;20221;-72
2022/09/26 03:35:03;;;;;;;4.73;3.00;;;12.20;67.40;;;;;;4972738;28;20183;-73
2022/09/26 03:37:29;;;;;;;8.90;3.57;;;12.30;72.40;;;;;;4972581;28;20179;-73
2022/09/26 03:39:54;;;;;;;7.30;3.50;;;12.30;65.90;;;;;;4972762;28;20204;-72
2022/09/26 03:42:20;;;;;;;12.13;3.70;;;12.40;64.00;;;;;;4972272;28;20619;-72
2022/09/26 03:44:45;;;;;;;7.50;3.90;;;12.40;66.40;;;;;;4972436;28;20176;-72
2022/09/26 03:47:11;;;;;;;8.90;4.00;;;12.30;61.00;;;;;;4971961;28;20636;-71
2022/09/26 03:49:37;;;;;;;9.93;4.37;;;12.30;62.60;;;;;;4972590;28;20171;-72
2022/09/26 03:52:03;;;;;;;7.47;4.37;;;12.30;64.40;;;;;;4971788;28;20223;-72
2022/09/26 03:54:29;;;;;;;6.13;4.53;;;12.30;66.70;;;;;;4972006;28;20172;-72
2022/09/26 03:56:54;;;;;;;11.20;4.57;;;12.30;66.00;;;;;;4972246;28;20226;-72
2022/09/26 03:59:20;;;;;;;6.17;4.40;;;12.40;63.70;;;;;;4971472;28;20213;-72
2022/09/26 04:01:46;;;;;;;6.57;4.43;;;12.50;65.30;;;;;;4971101;28;20207;-72
2022/09/26 04:04:14;;;;;;;10.77;4.97;;;12.50;59.20;;;;;;4972072;28;20647;-72
2022/09/26 04:06:39;;;;;;;10.77;4.30;;;12.50;55.50;;;;;;4971884;28;20693;-71
2022/09/26 04:09:05;;;;;;;8.07;4.20;;;12.50;53.80;;;;;;4972201;28;20207;-72
2022/09/26 04:11:31;;;;;;;8.20;4.53;;;12.40;51.30;;;;;;4971904;28;20524;-73
2022/09/26 04:13:56;;;;;;;6.43;4.43;;;12.40;57.00;;;;;;4972051;28;20642;-72
2022/09/26 04:16:22;;;;;;;6.60;4.77;;;12.40;59.40;;;;;;4970544;28;20620;-72
2022/09/26 04:18:48;;;;;;;11.90;4.50;;;12.40;61.10;;;;;;4971356;28;20234;-72
2022/09/26 04:21:15;;;;;;;9.80;4.57;;;12.40;57.50;;;;;;4971740;28;20223;-72
2022/09/26 04:23:42;;;;;;;5.23;3.80;;;12.40;53.50;;;;;;4971614;28;20176;-73
2022/09/26 04:26:12;;;;;;;6.87;3.70;;;12.40;52.00;;;;;;4971824;28;20235;-73
2022/09/26 04:28:38;;;;;;;7.83;3.90;;;12.30;53.10;;;;;;4972050;28;20210;-73
2022/09/26 04:31:06;;;;;;;6.37;4.00;;;12.30;55.30;;;;;;4971411;28;20223;-73
2022/09/26 04:33:32;;;;;;;5.87;3.30;;;12.40;62.50;;;;;;4971236;28;20172;-73
2022/09/26 04:36:02;;;;;;;7.40;3.63;;;12.40;59.20;;;;;;4971752;28;20203;-73
2022/09/26 04:38:32;;;;;;;10.07;3.77;;;12.40;53.00;;;;;;4970084;28;20663;-72
2022/09/26 04:41:08;;;;;;;7.43;4.00;;;12.40;54.00;;;;;;4969991;28;20243;-72
2022/09/26 04:43:34;;;;;;;9.47;4.43;;;12.40;55.00;;;;;;4970215;28;20172;-73
2022/09/26 04:46:00;;;;;;;7.40;4.70;;;12.40;51.70;;;;;;4970247;28;20187;-73
2022/09/26 04:48:27;;;;;;;10.03;4.37;;;12.40;54.20;;;;;;4970766;28;20176;-73
2022/09/26 04:50:53;;;;;;;7.53;4.83;;;12.30;57.30;;;;;;4971105;28;20199;-73
2022/09/26 04:53:19;;;;;;;7.23;4.33;;;12.40;54.60;;;;;;4970796;28;20176;-72
2022/09/26 04:55:46;;;;;;;8.10;5.17;;;12.40;58.60;;;;;;4971595;28;20207;-73
2022/09/26 04:58:12;;;;;;;5.77;4.47;;;12.30;47.70;;;;;;4971315;28;20286;-73
2022/09/26 05:00:46;;;;;;;10.93;4.83;;;12.40;50.20;;;;;;4970930;28;20218;-73
2022/09/26 05:03:15;;;;;;;7.53;5.00;;;12.40;44.00;;;;;;4970685;28;20237;-73
2022/09/26 05:05:44;;;;;;;8.50;5.10;;;12.40;45.90;;;;;;4970496;28;20207;-73
2022/09/26 05:08:10;;;;;;;11.10;5.70;;;12.30;43.20;;;;;;4970734;28;20251;-72
2022/09/26 05:10:37;;;;;;;10.00;4.77;;;12.30;41.30;;;;;;4970662;28;20183;-73
2022/09/26 05:13:03;;;;;;;10.53;5.10;;;12.30;44.80;;;;;;4971039;28;20160;-74
2022/09/26 05:15:29;;;;;;;8.33;4.93;;;12.30;44.40;;;;;;4970465;28;20180;-73
2022/09/26 05:17:59;;;;;;;8.80;4.60;;;12.30;38.90;;;;;;4970052;28;20725;-73
2022/09/26 05:20:30;;;;;;;8.07;4.97;;;12.30;37.60;;;;;;4970727;28;20204;-74
2022/09/26 05:23:00;;;;;;;7.30;4.20;;;12.30;35.70;;;;;;4970249;28;20235;-73
2022/09/26 05:28:14;;;;;;;8.13;4.50;;;12.40;30.00;;;;;;4970181;28;20257;-73
2022/09/26 05:30:39;;;;;;;9.03;4.70;;;12.40;20.00;;;;;;4969318;28;20252;-73
2022/09/26 05:33:06;;;;;;;9.27;4.07;;;12.40;20.90;;;;;;4968588;28;20179;-73
2022/09/26 05:35:35;;;;;;;8.53;4.37;;;12.40;22.30;;;;;;4970095;28;20179;-73
2022/09/26 05:38:02;;;;;;;7.57;4.50;;;12.50;19.10;;;;;;4968856;28;20683;-71
2022/09/26 05:43:11;;;;;;;7.23;4.03;;;12.50;20.70;;;;;;4969873;28;20175;-73
2022/09/26 05:45:37;;;;;;;9.97;4.33;;;12.50;23.10;;;;;;4969439;28;20176;-71
2022/09/26 05:48:04;;;;;;;7.30;4.50;;;12.50;25.80;;;;;;4968557;28;20691;-72
2022/09/26 05:50:31;;;;;;;9.67;4.30;;;12.40;27.80;;;;;;4968262;28;20668;-72
2022/09/26 05:52:58;;;;;;;6.17;3.80;;;12.40;29.90;;;;;;4969736;28;20521;-72
2022/09/26 05:55:25;;;;;;;6.97;4.00;;;12.40;30.80;;;;;;4969421;28;20275;-71
2022/09/26 05:57:57;;;;;;;8.90;4.60;;;12.40;30.30;;;;;;4969867;28;20673;-72
2022/09/26 06:00:26;;;;;;;10.27;4.70;;;12.50;29.30;;;;;;4968971;28;20679;-71
2022/09/26 06:03:01;;;;;;;11.23;4.43;;;12.40;31.90;;;;;;4969545;28;20187;-72
2022/09/26 06:05:27;;;;;;;7.63;3.93;;;12.50;31.90;;;;;;4968854;28;20178;-73
2022/09/26 06:07:53;;;;;;;6.30;4.10;;;12.40;33.10;;;;;;4969101;28;20258;-72
2022/09/26 06:10:20;;;;;;;5.70;3.67;;;12.40;34.20;;;;;;4969718;28;20176;-71
2022/09/26 06:12:45;;;;;;;6.57;3.73;;;12.40;40.80;;;;;;4967593;28;20624;-71
2022/09/26 06:15:12;;;;;;;6.43;3.40;;;12.40;38.60;;;;;;4969203;28;20260;-73
2022/09/26 06:17:37;;;;;;;6.20;4.00;;;12.50;39.30;;;;;;4967399;28;20273;-73
2022/09/26 06:20:04;;;;;;;8.70;4.00;;;12.50;40.50;;;;;;4969454;28;20239;-72
2022/09/26 06:22:32;;;;;;;7.60;4.50;;;12.50;36.70;;;;;;4970068;28;20172;-72
2022/09/26 06:24:58;;;;;;;4.00;3.30;;;12.60;38.90;;;;;;4970166;28;20734;-72
2022/09/26 06:27:24;;;;;;;8.60;3.60;;;12.50;38.70;;;;;;4972587;28;20251;-72
2022/09/26 06:29:50;;;;;;;6.20;3.50;;;12.50;42.00;;;;;;4972585;28;20180;-73
2022/09/26 06:32:16;;;;;;;8.73;3.83;;;12.50;41.60;;;;;;4972817;28;20568;-73
2022/09/26 06:34:41;;;;;;;6.13;3.47;;;12.50;43.20;;;;;;4972041;28;20266;-72
2022/09/26 06:37:07;;;;;;;6.27;3.53;;;12.50;43.00;;;;;;4972082;28;20655;-72
2022/09/26 06:39:35;;;;;;;9.77;4.33;;;12.50;47.30;;;;;;4971945;28;20227;-73
2022/09/26 06:42:06;;;;;;;8.03;4.03;;;12.50;54.80;;;;;;4970859;28;20207;-73
2022/09/26 06:44:32;;;;;;;5.17;3.70;;;12.50;57.20;;;;;;4972366;28;20654;-72
2022/09/26 06:47:01;;;;;;;5.80;3.80;;;12.50;60.50;;;;;;4972124;28;20184;-72
2022/09/26 06:49:27;;;;;;;6.07;3.70;;;12.60;60.30;;;;;;4972301;28;20168;-72
2022/09/26 06:51:53;;;;;;;5.27;3.73;;;12.60;59.00;;;;;;4971529;28;20597;-72
2022/09/26 06:54:18;;;;;;;9.17;3.97;;;12.60;57.60;;;;;;4971596;28;20258;-72
2022/09/26 06:56:44;;;;;;;9.17;3.97;;;12.60;62.70;;;;;;4971012;28;20178;-71
2022/09/26 06:59:10;;;;;;;7.03;3.90;;;12.60;61.40;;;;;;4971709;28;20255;-72
2022/09/26 07:01:35;;;;;;;7.87;4.00;;;12.60;58.70;;;;;;4972502;28;20303;-73
2022/09/26 07:04:02;;;;;;;9.03;4.07;;;12.60;60.80;;;;;;4972715;28;20176;-73
2022/09/26 07:06:27;;;;;;;7.60;4.27;;;12.70;62.10;;;;;;4971756;28;20164;-73
2022/09/26 07:08:53;;;;;;;7.60;4.00;;;12.60;62.10;;;;;;4972622;28;20657;-73
2022/09/26 07:11:19;;;;;;;7.00;3.83;;;12.70;61.30;;;;;;4971622;28;20173;-72
2022/09/26 07:13:44;;;;;;;8.03;4.60;;;12.70;60.50;;;;;;4971498;28;20217;-72
2022/09/26 07:16:11;;;;;;;8.17;3.83;;;12.80;57.60;;;;;;4972407;28;20176;-71
2022/09/26 07:18:38;;;;;;;6.90;4.43;;;12.80;54.10;;;;;;4970196;28;20763;-72
2022/09/26 07:21:07;;;;;;;7.90;4.13;;;12.90;54.20;;;;;;4971556;28;20215;-72
2022/09/26 07:23:33;;;;;;;8.63;4.23;;;12.80;55.10;;;;;;4972426;28;20213;-73
2022/09/26 07:25:59;;;;;;;8.50;4.17;;;12.80;56.30;;;;;;4970828;28;20180;-73
2022/09/26 07:28:25;;;;;;;9.30;4.20;;;12.90;56.90;;;;;;4971246;28;20530;-72
2022/09/26 07:30:55;;;;;;;6.87;4.77;;;13.00;53.40;;;;;;4971939;28;20187;-73
2022/09/26 07:33:21;;;;;;;7.03;4.00;;;13.00;53.70;;;;;;4971888;28;20689;-72
2022/09/26 07:35:47;;;;;;;8.77;4.13;;;13.00;54.60;;;;;;4971345;28;20172;-72
2022/09/26 07:38:13;;;;;;;6.63;3.90;;;13.00;52.50;;;;;;4971760;28;20214;-71
2022/09/26 07:40:41;;;;;;;9.73;4.30;;;13.10;51.60;;;;;;4971372;28;20216;-72
2022/09/26 07:43:07;;;;;;;14.07;5.13;;;13.20;48.50;;;;;;4972002;28;20172;-71
2022/09/26 07:51:01;;;;;;;12.63;5.33;;;13.10;49.00;;;;;;4971800;28;20557;-72
2022/09/26 07:53:28;;;;;;;13.20;4.47;;;13.10;49.90;;;;;;4972082;28;20176;-73
2022/09/26 07:56:09;;;;;;;11.70;4.27;;;13.10;52.00;;;;;;4971078;28;20187;-73
2022/09/26 07:58:42;;;;;;;7.20;5.00;;;13.10;48.40;;;;;;4970293;28;20212;-71
2022/09/26 08:01:13;;;;;;;7.50;4.27;;;13.30;46.20;;;;;;4970721;28;20204;-73
2022/09/26 08:03:43;;;;;;;14.20;4.80;;;13.20;44.70;;;;;;4970483;28;20176;-73
2022/09/26 08:06:09;;;;;;;7.90;3.87;;;13.30;39.90;;;;;;4970935;28;20616;-72
2022/09/26 08:08:35;;;;;;;10.87;4.17;;;13.40;34.90;;;;;;4970569;28;20180;-73
2022/09/26 08:11:01;;;;;;;11.90;3.90;;;13.50;30.50;;;;;;4970502;28;20635;-73
2022/09/26 08:13:29;;;;;;;6.93;3.80;;;13.70;22.60;;;;;;4971201;28;20180;-73
2022/09/26 08:16:00;;;;;;;9.53;3.80;;;14.10;17.70;;;;;;4971592;28;20183;-72
2022/09/26 08:18:25;;;;;;;5.53;3.30;;;14.10;5.90;;;;;;4971272;28;20308;-73
2022/09/26 08:20:51;;;;;;;9.33;3.30;;;14.10;2.50;;;;;;4971419;28;20671;-73
2022/09/26 08:23:16;;;;;;;7.87;3.10;;;14.20;1.00;;;;;;4971283;28;20175;-72
2022/09/26 08:25:43;;;;;;;5.67;3.50;;;14.30;1.70;;;;;;4969431;28;20635;-72
2022/09/26 08:28:11;;;;;;;7.33;4.10;;;14.30;1.00;;;;;;4969788;28;20180;-72
2022/09/26 08:30:41;;;;;;;7.37;3.40;;;14.30;1.00;;;;;;4971525;28;20639;-72
2022/09/26 08:33:08;;;;;;;6.80;3.80;;;14.30;1.00;;;;;;4970740;28;20629;-73
2022/09/26 08:35:40;;;;;;;9.00;3.77;;;14.20;1.00;;;;;;4969727;28;20258;-72
2022/09/26 08:38:08;;;;;;;5.83;3.30;;;14.10;3.60;;;;;;4970263;28;20200;-72
2022/09/26 08:40:50;;;;;;;5.87;3.60;;;14.00;6.50;;;;;;4971032;28;20215;-73
2022/09/26 08:43:24;;;;;;;8.30;3.40;;;13.90;8.90;;;;;;4971418;28;20172;-73
2022/09/26 08:48:43;;;;;;;8.17;3.53;;;14.00;10.40;;;;;;4971204;28;20168;-73
2022/09/26 08:51:36;;;;;;;8.20;3.00;;;13.90;20.60;;;;;;4968571;28;20286;-72
2022/09/26 08:54:25;;;;;;;7.80;3.20;;;13.80;26.00;;;;;;4971236;28;20176;-71
2022/09/26 08:57:00;;;;;;;10.20;3.47;;;13.80;25.00;;;;;;4971133;28;20172;-72
2022/09/26 08:59:38;;;;;;;10.50;3.50;;;13.80;28.00;;;;;;4970850;28;20183;-73
2022/09/26 09:02:15;;;;;;;9.97;4.17;;;13.90;29.30;;;;;;4970552;28;20187;-72
2022/09/26 09:04:50;;;;;;;7.53;3.60;;;13.90;29.20;;;;;;4970425;28;20168;-73
2022/09/26 09:07:24;;;;;;;9.93;3.40;;;13.90;38.50;;;;;;4971036;28;20230;-72
2022/09/26 09:09:52;;;;;;;9.37;3.93;;;13.80;45.80;;;;;;4969381;28;20175;-72
2022/09/26 09:12:25;;;;;;;10.57;4.40;;;13.70;52.90;;;;;;4970118;28;20648;-72
2022/09/26 09:15:16;;;;;;;6.63;3.77;;;13.70;67.60;;;;;;4969721;28;20180;-73
2022/09/26 09:18:16;;;;;;;5.90;3.33;;;13.50;68.80;;;;;;4970181;28;20299;-72
2022/09/26 09:20:59;;;;;;;9.50;4.00;;;13.40;74.80;;;;;;4968174;28;20223;-73
2022/09/26 09:23:44;;;;;;;11.00;3.60;;;13.40;91.20;;;;;;4968688;28;20176;-72
2022/09/26 09:26:30;;;;;;;14.77;4.30;;;13.30;92.90;;;;;;4970516;28;20172;-72
2022/09/26 09:29:10;;;;;;;10.27;4.23;;;13.30;98.00;;;;;;4970709;28;20221;-72
2022/09/26 09:31:40;;;;;;;6.30;3.87;;;13.20;99.90;;;;;;4970223;28;20229;-73
2022/09/26 09:34:12;;;;;;;14.13;4.07;;;13.20;99.90;;;;;;4969830;28;20168;-72
2022/09/26 09:36:50;;;;;;;8.07;4.50;;;13.20;99.90;;;;;;4970708;28;20180;-72
2022/09/26 09:39:30;;;;;;;8.57;4.40;;;13.10;99.90;;;;;;4969623;28;20170;-71
2022/09/26 09:42:02;;;;;;;13.00;4.83;;;13.10;99.90;;;;;;4970292;28;20253;-71
2022/09/26 09:44:46;;;;;;;10.13;4.30;;;13.10;99.90;;;;;;4969421;28;20192;-72
2022/09/26 09:47:14;;;;;;;10.73;5.10;;;13.00;99.90;;;;;;4970463;28;20168;-71
2022/09/26 09:49:42;;;;;;;15.87;4.60;;;13.00;99.90;;;;;;4970238;28;20176;-72
2022/09/26 09:52:37;;;;;;;15.43;5.00;;;13.00;99.90;;;;;;4970123;28;20180;-72
2022/09/26 09:55:18;;;;;;;16.87;5.40;;;13.00;99.90;;;;;;4968581;28;20176;-72
2022/09/26 09:58:01;;;;;;;10.33;4.30;;;13.10;99.90;;;;;;4971098;28;20172;-72
2022/09/26 10:00:27;;;;;;;7.90;4.37;;;13.10;99.90;;;;;;4974332;28;20219;-72
2022/09/26 10:03:14;;;;;;;9.07;4.30;;;13.20;99.90;;;;;;4973197;28;20176;-73
2022/09/26 10:05:45;;;;;;;8.80;4.10;;;13.20;99.90;;;;;;4973020;28;20193;-72
2022/09/26 10:08:18;;;;;;;6.20;4.20;;;13.20;99.90;;;;;;4972731;28;20175;-72
2022/09/26 10:11:15;;;;;;;4.93;3.73;;;13.20;99.90;;;;;;4973399;28;20176;-73
2022/09/26 10:13:43;;;;;;;7.63;4.00;;;13.20;99.90;;;;;;4973247;28;20187;-73
2022/09/26 10:16:13;;;;;;;9.80;4.50;;;13.20;99.90;;;;;;4972756;28;20180;-72
2022/09/26 10:19:05;;;;;;;6.73;4.03;;;13.30;99.90;;;;;;4973006;28;20224;-72
2022/09/26 10:21:34;;;;;;;7.10;4.27;;;13.40;99.90;;;;;;4972386;28;20212;-72
2022/09/26 10:24:03;;;;;;;6.73;4.27;;;13.50;99.90;;;;;;4972614;28;20685;-73
2022/09/26 10:26:33;;;;;;;9.07;4.20;;;13.40;99.90;;;;;;4972996;28;20175;-72
2022/09/26 10:29:07;;;;;;;7.40;4.20;;;13.50;99.90;;;;;;4971964;28;20172;-72
2022/09/26 10:31:39;;;;;;;8.90;4.00;;;13.50;99.90;;;;;;4973063;28;20259;-73
2022/09/26 10:34:23;;;;;;;6.33;3.73;;;13.40;99.90;;;;;;4973248;28;20176;-72
2022/09/26 10:36:48;;;;;;;7.30;4.47;;;13.30;99.90;;;;;;4970185;28;20190;-73
2022/09/26 10:42:18;;;;;;;4.20;3.63;;;13.30;99.90;;;;;;4972621;28;20654;-72
2022/09/26 10:44:47;;;;;;;4.70;3.57;;;13.30;99.90;;;;;;4972708;28;20171;-71
2022/09/26 10:47:25;;;;;;;8.43;4.23;;;13.10;99.90;;;;;;4972046;28;20168;-71
2022/09/26 10:50:15;;;;;;;9.20;4.00;;;13.10;99.90;;;;;;4970958;28;20198;-72
2022/09/26 10:53:00;;;;;;;7.67;4.13;;;13.10;99.90;;;;;;4971564;28;20509;-71
2022/09/26 10:55:31;;;;;;;9.67;5.20;;;13.00;99.90;;;;;;4972661;28;20168;-72
2022/09/26 10:58:03;;;;;;;15.77;7.33;;;12.90;99.90;;;;;;4971654;28;20225;-71
2022/09/26 11:00:39;;;;;;;14.90;7.00;;;13.00;99.90;;;;;;4972366;28;20255;-72
2022/09/26 11:03:15;;;;;;;7.87;4.23;;;12.90;99.90;;;;;;4972200;28;20179;-72
2022/09/26 11:05:55;;;;;;;16.33;7.00;;;12.80;99.90;;;;;;4970405;28;20673;-72
2022/09/26 11:08:24;;;;;;;37.03;27.93;;;12.80;99.90;;;;;;4972562;28;20639;-72
2022/09/26 11:10:51;;;;;;;7.20;4.33;;;12.70;99.90;;;;;;4972452;28;20173;-71
2022/09/26 11:13:18;;;;;;;9.13;5.30;;;12.60;99.90;;;;;;4971951;28;20234;-72
2022/09/26 11:16:00;;;;;;;11.50;7.17;;;12.70;99.90;;;;;;4972282;28;20604;-71
2022/09/26 11:18:43;;;;;;;12.03;8.70;;;12.80;99.90;;;;;;4971919;28;20236;-71
2022/09/26 11:21:33;;;;;;;6.67;4.37;;;12.60;99.90;;;;;;4970125;28;20211;-71
2022/09/26 11:24:26;;;;;;;8.27;4.67;;;12.60;99.90;;;;;;4972266;28;20168;-72
2022/09/26 11:27:10;;;;;;;6.60;3.90;;;12.70;99.90;;;;;;4972415;28;20164;-72
2022/09/26 11:29:46;;;;;;;4.70;3.97;;;12.60;99.90;;;;;;4972386;28;20271;-71
2022/09/26 11:32:16;;;;;;;6.63;4.80;;;12.70;99.90;;;;;;4971944;28;20651;-71
2022/09/26 11:34:42;;;;;;;5.50;3.40;;;12.60;99.90;;;;;;4971719;28;20199;-71
2022/09/26 11:37:51;;;;;;;5.60;3.63;;;12.60;99.90;;;;;;4971914;28;20207;-71
2022/09/26 11:40:42;;;;;;;5.70;3.37;;;12.70;99.90;;;;;;4931683;29;20201;-71
2022/09/26 11:43:34;;;;;;;5.30;3.80;;;12.70;99.90;;;;;;4971783;28;20208;-71
2022/09/26 11:46:24;;;;;;;6.50;3.97;;;12.80;99.90;;;;;;4972097;28;20180;-71
2022/09/26 11:49:00;;;;;;;6.90;3.90;;;12.80;99.90;;;;;;4971236;28;20168;-71
2022/09/26 11:51:26;;;;;;;5.27;3.33;;;12.90;99.90;;;;;;4970223;28;20195;-72
2022/09/26 11:53:59;;;;;;;5.73;3.70;;;12.90;99.90;;;;;;4972119;28;20243;-71
2022/09/26 11:56:51;;;;;;;4.40;3.27;;;13.00;99.90;;;;;;4972021;28;20644;-72
2022/09/26 11:59:20;;;;;;;10.73;5.53;;;13.00;99.90;;;;;;4970698;28;20206;-70
2022/09/26 12:01:53;;;;;;;5.20;4.70;;;13.00;99.90;;;;;;4971378;28;20745;-71
2022/09/26 12:04:34;;;;;;;7.27;3.50;;;13.10;99.90;;;;;;4970874;28;20168;-70
2022/09/26 12:07:06;;;;;;;4.03;3.00;;;13.20;99.90;;;;;;4971809;28;20229;-70
2022/09/26 12:09:53;;;;;;;5.60;3.60;;;13.30;99.90;;;;;;4971771;28;20164;-71
2022/09/26 12:12:23;;;;;;;8.93;3.50;;;13.20;99.90;;;;;;4969501;28;20184;-70
2022/09/26 12:15:20;;;;;;;8.80;7.97;;;13.30;99.90;;;;;;4968965;28;20225;-70
2022/09/26 12:18:14;;;;;;;3.47;3.17;;;13.30;99.90;;;;;;4967866;28;20247;-70
2022/09/26 12:20:55;;;;;;;7.57;6.00;;;13.40;99.90;;;;;;4970152;28;20216;-70
2022/09/26 12:23:37;;;;;;;4.87;3.77;;;13.30;99.90;;;;;;4970980;28;20665;-71
2022/09/26 12:26:07;;;;;;;3.67;2.30;;;13.30;99.90;;;;;;4971158;28;20250;-71
2022/09/26 12:28:58;;;;;;;4.87;3.30;;;13.30;99.90;;;;;;4970937;28;20209;-70
2022/09/26 12:31:41;;;;;;;4.03;3.20;;;13.30;99.90;;;;;;4970936;28;20172;-71
2022/09/26 12:34:36;;;;;;;3.10;2.60;;;13.40;99.90;;;;;;5002265;28;20262;-70
2022/09/26 12:37:23;;;;;;;6.70;2.63;;;13.30;99.90;;;;;;4970860;28;20175;-70
2022/09/26 12:40:08;;;;;;;2.80;2.33;;;13.40;99.90;;;;;;4969168;28;20196;-70
2022/09/26 12:43:20;;;;;;;3.80;2.40;;;13.40;99.90;;;;;;4970135;28;20168;-70
2022/09/26 12:46:13;;;;;;;8.10;3.03;;;13.40;99.90;;;;;;4971425;28;20267;-71
2022/09/26 12:48:42;;;;;;;4.60;3.10;;;13.30;99.90;;;;;;4971287;28;20254;-71
2022/09/26 12:51:27;;;;;;;3.53;2.43;;;13.20;99.90;;;;;;4970123;28;20651;-70
2022/09/26 12:54:07;;;;;;;3.77;2.60;;;13.30;99.90;;;;;;4970663;28;20171;-71
2022/09/26 12:56:47;;;;;;;3.57;2.10;;;13.30;99.90;;;;;;4969614;28;20172;-70
2022/09/26 12:59:51;;;;;;;4.37;2.50;;;13.20;99.90;;;;;;4970826;28;20175;-70
2022/09/26 13:02:44;;;;;;;16.60;12.57;;;13.20;99.90;;;;;;4970201;28;20712;-71
2022/09/26 13:05:14;;;;;;;3.77;2.30;;;13.20;99.90;;;;;;4970570;28;20671;-71
2022/09/26 13:07:45;;;;;;;3.30;2.10;;;13.10;99.90;;;;;;4970714;28;20168;-71
2022/09/26 13:10:37;;;;;;;2.00;1.90;;;13.20;99.90;;;;;;4969844;28;20195;-71
2022/09/26 13:13:32;;;;;;;2.80;2.20;;;13.10;99.90;;;;;;4970365;28;20619;-71
2022/09/26 13:16:17;;;;;;;5.00;2.30;;;13.10;99.90;;;;;;4970313;28;20628;-71
2022/09/26 13:18:54;;;;;;;5.37;2.30;;;13.10;99.90;;;;;;4970273;28;20223;-71
2022/09/26 13:21:30;;;;;;;4.83;2.70;;;13.00;99.90;;;;;;4970458;28;20211;-71
2022/09/26 13:24:03;;;;;;;2.80;2.60;;;13.00;99.90;;;;;;4969570;28;20175;-70
2022/09/26 13:26:35;;;;;;;2.87;2.67;;;13.10;99.90;;;;;;4970431;28;20184;-71
2022/09/26 13:29:13;;;;;;;4.30;2.67;;;13.10;99.90;;;;;;4970777;28;20195;-71
2022/09/26 13:32:09;;;;;;;3.73;2.80;;;13.20;99.90;;;;;;4970703;28;20278;-71
2022/09/26 13:34:44;;;;;;;4.20;3.10;;;13.20;99.90;;;;;;4974002;28;20602;-70